createdAt,value
2018-02-18T00:01:42.078Z,-0.60
2018-02-18T00:07:00.044Z,-0.70
2018-02-18T00:09:27.071Z,-0.70
2018-02-18T00:11:54.204Z,-0.80
2018-02-18T00:14:21.834Z,-0.90
2018-02-18T00:16:48.880Z,-0.90
2018-02-18T00:19:15.213Z,-0.90
2018-02-18T00:21:41.767Z,-0.90
2018-02-18T00:24:08.130Z,-1.00
2018-02-18T00:26:34.459Z,-0.90
2018-02-18T00:29:01.809Z,-0.90
2018-02-18T00:31:28.123Z,-0.90
2018-02-18T00:33:54.446Z,-0.90
2018-02-18T00:36:21.677Z,-0.90
2018-02-18T00:38:48.140Z,-0.90
2018-02-18T00:41:14.577Z,-0.90
2018-02-18T00:43:40.903Z,-0.90
2018-02-18T00:46:07.331Z,-0.90
2018-02-18T00:48:33.702Z,-1.00
2018-02-18T00:51:00.101Z,-1.00
2018-02-18T00:53:26.484Z,-1.00
2018-02-18T00:55:52.829Z,-1.00
2018-02-18T00:58:19.291Z,-1.10
2018-02-18T01:00:45.676Z,-1.10
2018-02-18T01:03:12.096Z,-1.20
2018-02-18T01:05:38.554Z,-1.20
2018-02-18T01:08:05.719Z,-1.40
2018-02-18T01:10:32.912Z,-1.40
2018-02-18T01:12:59.309Z,-1.50
2018-02-18T01:15:25.793Z,-1.40
2018-02-18T01:17:53.012Z,-1.60
2018-02-18T01:20:20.247Z,-1.50
2018-02-18T01:22:46.690Z,-1.60
2018-02-18T01:25:13.123Z,-1.50
2018-02-18T01:27:39.497Z,-1.50
2018-02-18T01:30:05.919Z,-1.50
2018-02-18T01:32:32.369Z,-1.50
2018-02-18T01:34:58.801Z,-1.50
2018-02-18T01:37:25.954Z,-1.60
2018-02-18T01:39:53.052Z,-1.60
2018-02-18T01:42:19.445Z,-1.60
2018-02-18T01:44:45.925Z,-1.60
2018-02-18T01:47:12.341Z,-1.70
2018-02-18T01:49:38.804Z,-1.70
2018-02-18T01:52:05.898Z,-1.70
2018-02-18T01:54:32.325Z,-1.70
2018-02-18T01:56:59.440Z,-1.70
2018-02-18T01:59:25.825Z,-1.80
2018-02-18T02:01:52.935Z,-1.90
2018-02-18T02:04:19.347Z,-1.90
2018-02-18T02:06:46.464Z,-2.00
2018-02-18T02:09:12.961Z,-2.10
2018-02-18T02:11:40.101Z,-2.00
2018-02-18T02:14:07.530Z,-2.00
2018-02-18T02:16:33.903Z,-2.00
2018-02-18T02:19:00.361Z,-2.00
2018-02-18T02:21:26.800Z,-2.00
2018-02-18T02:23:53.306Z,-2.00
2018-02-18T02:26:19.635Z,-2.00
2018-02-18T02:28:46.070Z,-2.10
2018-02-18T02:31:13.186Z,-2.20
2018-02-18T02:33:39.558Z,-2.20
2018-02-18T02:36:06.002Z,-2.40
2018-02-18T02:38:32.697Z,-2.30
2018-02-18T02:40:59.113Z,-2.30
2018-02-18T04:00:57.604Z,-2.30
2018-02-18T04:03:23.995Z,-4.00
2018-02-18T04:05:50.465Z,-3.90
2018-02-18T04:08:17.653Z,-3.70
2018-02-18T04:10:44.065Z,-3.70
2018-02-18T04:13:10.534Z,-3.60
2018-02-18T04:15:37.665Z,-3.50
2018-02-18T04:18:04.078Z,-3.50
2018-02-18T04:20:30.473Z,-3.40
2018-02-18T04:22:57.680Z,-3.30
2018-02-18T04:25:24.122Z,-3.30
2018-02-18T04:27:50.569Z,-3.30
2018-02-18T04:30:18.016Z,-3.20
2018-02-18T04:32:45.209Z,-3.20
2018-02-18T04:35:11.620Z,-3.20
2018-02-18T04:37:38.785Z,-3.20
2018-02-18T04:40:05.946Z,-3.20
2018-02-18T04:42:33.120Z,-3.20
2018-02-18T04:45:00.280Z,-3.10
2018-02-18T04:47:27.484Z,-3.10
2018-02-18T04:49:53.876Z,-3.20
2018-02-18T04:52:20.423Z,-3.10
2018-02-18T04:54:46.768Z,-3.10
2018-02-18T04:57:13.244Z,-3.10
2018-02-18T04:59:39.670Z,-3.10
2018-02-18T05:02:06.868Z,-3.10
2018-02-18T05:04:33.276Z,-3.10
2018-02-18T05:06:59.745Z,-3.10
2018-02-18T05:09:26.164Z,-3.00
2018-02-18T05:11:52.657Z,-3.00
2018-02-18T05:14:19.072Z,-3.00
2018-02-18T05:16:45.427Z,-3.00
2018-02-18T06:35:09.841Z,-3.00
2018-02-18T06:37:36.493Z,-4.40
2018-02-18T06:40:03.079Z,-4.30
2018-02-18T06:42:30.558Z,-4.10
2018-02-18T06:44:56.969Z,-4.10
2018-02-18T06:47:23.444Z,-4.00
2018-02-18T06:49:49.859Z,-3.90
2018-02-18T06:52:16.341Z,-3.80
2018-02-18T06:54:42.740Z,-3.70
2018-02-18T06:57:09.211Z,-3.60
2018-02-18T06:59:36.366Z,-3.30
2018-02-18T07:02:02.897Z,-3.40
2018-02-18T07:04:29.260Z,-3.20
2018-02-18T07:06:55.632Z,-3.00
2018-02-18T07:09:22.839Z,-2.90
2018-02-18T07:11:49.243Z,-2.90
2018-02-18T07:14:16.424Z,-2.70
2018-02-18T07:16:42.784Z,-2.70
2018-02-18T07:19:09.241Z,-2.50
2018-02-18T07:21:35.635Z,-2.40
2018-02-18T07:24:02.835Z,-2.20
2018-02-18T07:26:29.294Z,-2.20
2018-02-18T07:28:55.757Z,-2.10
2018-02-18T07:31:22.167Z,-1.90
2018-02-18T07:33:48.592Z,-1.80
2018-02-18T07:36:15.758Z,-1.60
2018-02-18T07:38:42.948Z,-1.50
2018-02-18T07:41:09.297Z,-1.50
2018-02-18T07:43:35.733Z,-1.40
2018-02-18T07:46:02.153Z,-1.40
2018-02-18T07:48:29.346Z,-1.20
2018-02-18T07:50:55.692Z,-1.20
2018-02-18T07:53:22.148Z,-1.10
2018-02-18T07:55:48.607Z,-1.10
2018-02-18T07:58:15.024Z,-1.10
2018-02-18T08:00:41.469Z,-1.00
2018-02-18T08:03:07.917Z,-1.00
2018-02-18T08:05:34.368Z,-1.00
2018-02-18T08:08:00.831Z,-1.00
2018-02-18T08:10:27.229Z,-0.90
2018-02-18T08:12:53.693Z,-0.70
2018-02-18T08:15:20.848Z,-0.60
2018-02-18T08:17:48.040Z,-0.40
2018-02-18T08:20:14.388Z,-0.40
2018-02-18T08:22:40.836Z,-0.30
2018-02-18T08:25:07.296Z,-0.20
2018-02-18T08:27:33.756Z,-0.10
2018-02-18T08:30:00.134Z,-0.10
2018-02-18T08:32:26.628Z,0.00
2018-02-18T08:34:53.024Z,0.10
2018-02-18T08:37:19.485Z,0.20
2018-02-18T08:39:46.721Z,0.50
2018-02-18T08:42:13.105Z,0.50
2018-02-18T08:44:40.250Z,0.80
2018-02-18T08:47:06.663Z,0.80
2018-02-18T08:49:32.996Z,0.90
2018-02-18T08:51:59.468Z,1.10
2018-02-18T08:54:25.870Z,1.10
2018-02-18T08:56:52.517Z,1.30
2018-02-18T08:59:18.937Z,1.40
2018-02-18T09:01:46.116Z,1.70
2018-02-18T09:04:12.593Z,1.70
2018-02-18T09:06:39.273Z,1.90
2018-02-18T09:09:05.617Z,1.90
2018-02-18T09:11:32.281Z,2.10
2018-02-18T09:13:59.036Z,2.20
2018-02-18T09:16:25.469Z,2.20
2018-02-18T09:18:51.881Z,2.40
2018-02-18T09:21:19.019Z,2.60
2018-02-18T09:23:45.480Z,2.60
2018-02-18T09:26:12.611Z,2.80
2018-02-18T09:28:39.107Z,2.80
2018-02-18T09:31:05.529Z,2.90
2018-02-18T09:33:32.061Z,3.10
2018-02-18T09:35:58.610Z,3.20
2018-02-18T09:38:25.064Z,3.30
2018-02-18T09:40:51.516Z,3.30
2018-02-18T09:43:18.020Z,3.40
2018-02-18T09:45:44.443Z,3.50
2018-02-18T09:48:11.028Z,3.50
2018-02-18T09:50:37.622Z,3.60
2018-02-18T09:53:04.118Z,3.70
2018-02-18T09:55:30.879Z,3.80
2018-02-18T09:57:57.543Z,3.90
2018-02-18T10:00:23.992Z,4.00
2018-02-18T10:02:50.372Z,4.10
2018-02-18T10:05:16.856Z,4.10
2018-02-18T10:07:43.279Z,4.30
2018-02-18T10:10:10.490Z,4.40
2018-02-18T10:12:36.920Z,4.40
2018-02-18T10:15:03.376Z,4.50
2018-02-18T10:17:30.786Z,4.50
2018-02-18T10:19:57.274Z,4.60
2018-02-18T10:22:23.676Z,4.80
2018-02-18T10:24:50.353Z,4.80
2018-02-18T10:27:17.478Z,4.80
2018-02-18T10:29:43.907Z,4.80
2018-02-18T10:32:10.384Z,4.80
2018-02-18T10:34:36.878Z,4.90
2018-02-18T10:37:03.334Z,4.90
2018-02-18T10:39:29.801Z,4.90
2018-02-18T10:41:56.172Z,4.90
2018-02-18T10:44:22.716Z,5.00
2018-02-18T10:46:50.187Z,4.90
2018-02-18T10:49:16.622Z,4.90
2018-02-18T10:51:43.105Z,5.10
2018-02-18T10:54:10.245Z,4.80
2018-02-18T10:56:36.609Z,4.90
2018-02-18T10:59:03.022Z,4.90
2018-02-18T11:01:29.586Z,5.00
2018-02-18T11:03:56.087Z,5.10
2018-02-18T11:06:22.801Z,5.10
2018-02-18T11:08:49.268Z,5.00
2018-02-18T11:11:15.582Z,5.20
2018-02-18T11:13:41.983Z,5.30
2018-02-18T11:16:09.433Z,5.20
2018-02-18T11:18:36.518Z,5.30
2018-02-18T11:21:02.896Z,5.30
2018-02-18T11:23:29.389Z,5.20
2018-02-18T11:25:56.058Z,5.30
2018-02-18T11:28:22.788Z,5.30
2018-02-18T11:30:49.242Z,5.40
2018-02-18T11:33:16.376Z,5.40
2018-02-18T11:35:42.756Z,5.40
2018-02-18T11:38:09.218Z,5.50
2018-02-18T11:40:35.666Z,5.70
2018-02-18T11:43:03.212Z,5.70
2018-02-18T11:45:32.618Z,5.80
2018-02-18T11:47:59.753Z,5.90
2018-02-18T11:50:26.112Z,5.90
2018-02-18T11:52:52.632Z,5.90
2018-02-18T11:55:19.015Z,5.90
2018-02-18T11:57:45.421Z,6.00
2018-02-18T12:00:16.469Z,6.10
2018-02-18T12:02:42.880Z,6.20
2018-02-18T12:05:09.382Z,6.30
2018-02-18T12:07:35.813Z,6.30
2018-02-18T12:10:02.329Z,6.20
2018-02-18T12:12:28.846Z,6.30
2018-02-18T12:14:55.387Z,6.20
2018-02-18T12:17:23.804Z,6.00
2018-02-18T12:19:52.436Z,6.00
2018-02-18T12:22:18.944Z,6.10
2018-02-18T12:24:45.483Z,6.10
2018-02-18T12:27:13.386Z,6.20
2018-02-18T12:29:39.810Z,6.10
2018-02-18T12:32:06.260Z,6.20
2018-02-18T12:34:32.618Z,6.50
2018-02-18T12:36:59.063Z,6.70
2018-02-18T12:39:25.500Z,6.90
2018-02-18T12:41:51.923Z,7.90
2018-02-18T12:44:18.333Z,8.40
2018-02-18T12:46:45.457Z,9.50
2018-02-18T12:49:11.934Z,9.50
2018-02-18T12:51:46.321Z,9.10
2018-02-18T12:54:12.705Z,9.30
2018-02-18T12:56:39.213Z,10.30
2018-02-18T12:59:06.208Z,11.20
2018-02-18T13:01:32.646Z,11.90
2018-02-18T13:03:59.182Z,13.50
2018-02-18T13:06:25.661Z,14.00
2018-02-18T13:08:52.037Z,12.60
2018-02-18T13:11:18.444Z,12.30
2018-02-18T13:13:44.929Z,12.90
2018-02-18T13:16:11.336Z,13.60
2018-02-18T13:18:37.922Z,14.50
2018-02-18T13:21:04.389Z,15.40
2018-02-18T13:23:30.915Z,15.70
2018-02-18T13:25:58.035Z,14.90
2018-02-18T13:28:24.576Z,14.90
2018-02-18T13:30:52.971Z,15.20
2018-02-18T13:33:19.400Z,14.10
2018-02-18T13:35:45.751Z,14.50
2018-02-18T13:38:12.219Z,15.20
2018-02-18T13:40:38.467Z,15.00
2018-02-18T13:43:04.952Z,15.10
2018-02-18T13:45:31.213Z,13.90
2018-02-18T13:47:58.572Z,14.50
2018-02-18T13:50:24.916Z,14.40
2018-02-18T13:52:51.260Z,15.00
2018-02-18T13:55:18.300Z,14.60
2018-02-18T13:57:45.407Z,14.20
2018-02-18T14:00:11.800Z,14.20
2018-02-18T14:02:38.056Z,13.90
2018-02-18T14:05:06.161Z,13.60
2018-02-18T14:07:32.446Z,13.60
2018-02-18T14:09:59.466Z,12.50
2018-02-18T14:12:26.004Z,12.50
2018-02-18T14:14:52.369Z,12.30
2018-02-18T14:17:18.684Z,12.00
2018-02-18T14:19:45.736Z,10.40
2018-02-18T14:22:12.802Z,10.20
2018-02-18T14:24:39.152Z,10.20
2018-02-18T14:27:06.209Z,9.60
2018-02-18T14:29:32.549Z,9.60
2018-02-18T14:31:59.633Z,9.20
2018-02-18T14:34:25.955Z,9.10
2018-02-18T14:36:53.196Z,8.90
2018-02-18T14:39:19.448Z,8.60
2018-02-18T14:41:58.082Z,8.40
2018-02-18T14:44:36.665Z,8.40
2018-02-18T14:47:15.339Z,8.30
2018-02-18T14:52:57.880Z,9.30
2018-02-18T14:55:27.636Z,9.50
2018-02-18T14:57:53.937Z,9.50
2018-02-18T15:00:20.206Z,9.40
2018-02-18T15:02:46.458Z,9.10
2018-02-18T15:05:12.729Z,9.10
2018-02-18T15:07:39.004Z,9.00
2018-02-18T15:10:05.292Z,8.90
2018-02-18T15:12:31.584Z,9.00
2018-02-18T15:14:58.589Z,8.40
2018-02-18T15:17:24.856Z,8.40
2018-02-18T15:19:51.884Z,8.40
2018-02-18T15:22:18.206Z,8.40
2018-02-18T15:24:44.544Z,8.60
2018-02-18T15:27:10.892Z,8.80
2018-02-18T15:29:37.250Z,8.70
2018-02-18T15:32:03.581Z,8.40
2018-02-18T15:34:29.922Z,8.20
2018-02-18T15:36:56.257Z,8.00
2018-02-18T15:39:22.595Z,7.80
2018-02-18T15:41:48.958Z,7.50
2018-02-18T15:44:15.272Z,7.30
2018-02-18T15:46:41.654Z,7.30
2018-02-18T15:49:08.684Z,7.10
2018-02-18T15:51:34.924Z,7.00
2018-02-18T15:54:02.021Z,6.80
2018-02-18T15:56:28.327Z,6.80
2018-02-18T15:58:54.720Z,6.60
2018-02-18T16:01:20.988Z,6.40
2018-02-18T16:03:47.308Z,6.40
2018-02-18T16:06:14.340Z,6.20
2018-02-18T16:08:41.364Z,6.10
2018-02-18T16:11:07.881Z,6.00
2018-02-18T16:13:34.232Z,6.00
2018-02-18T16:16:00.498Z,6.10
2018-02-18T16:18:27.501Z,6.00
2018-02-18T16:20:54.147Z,5.90
2018-02-18T16:23:20.401Z,6.00
2018-02-18T16:25:47.468Z,5.90
2018-02-18T16:28:13.818Z,5.90
2018-02-18T16:30:40.143Z,5.90
2018-02-18T16:33:07.461Z,5.80
2018-02-18T16:35:34.484Z,5.60
2018-02-18T16:38:00.734Z,5.60
2018-02-18T16:40:27.771Z,5.40
2018-02-18T16:42:54.028Z,5.40
2018-02-18T16:45:20.276Z,5.30
2018-02-18T16:47:46.624Z,5.10
2018-02-18T16:50:12.875Z,5.00
2018-02-18T16:52:39.159Z,4.80
2018-02-18T16:55:05.612Z,4.70
2018-02-18T16:57:31.916Z,4.70
2018-02-18T16:59:58.167Z,4.80
2018-02-18T17:02:24.488Z,4.70
2018-02-18T17:04:50.737Z,4.40
2018-02-18T17:07:17.735Z,4.40
2018-02-18T17:09:44.748Z,4.20
2018-02-18T17:12:11.006Z,4.20
2018-02-18T17:14:38.024Z,3.90
2018-02-18T17:17:05.313Z,3.90
2018-02-18T17:19:31.635Z,3.70
2018-02-18T17:21:58.630Z,3.50
2018-02-18T17:24:25.091Z,3.50
2018-02-18T17:26:51.408Z,3.50
2018-02-18T17:29:17.744Z,3.50
2018-02-18T17:31:44.857Z,3.40
2018-02-18T17:34:11.149Z,3.30
2018-02-18T17:36:38.174Z,3.10
2018-02-18T17:39:04.445Z,3.10
2018-02-18T17:41:30.743Z,3.10
2018-02-18T17:43:57.050Z,3.00
2018-02-18T17:46:23.328Z,3.00
2018-02-18T17:48:50.308Z,2.90
2018-02-18T17:51:16.640Z,2.90
2018-02-18T17:53:42.875Z,2.80
2018-02-18T17:56:09.189Z,2.80
2018-02-18T17:58:35.448Z,2.70
2018-02-18T18:01:01.708Z,2.70
2018-02-18T18:03:28.738Z,2.50
2018-02-18T18:05:55.241Z,2.50
2018-02-18T18:08:21.542Z,2.40
2018-02-18T18:10:47.790Z,2.30
2018-02-18T18:13:14.108Z,2.20
2018-02-18T18:15:40.344Z,2.20
2018-02-18T18:18:06.608Z,2.10
2018-02-18T18:20:32.896Z,2.10
2018-02-18T18:22:59.156Z,2.10
2018-02-18T18:25:25.549Z,2.10
2018-02-18T18:27:53.132Z,2.10
2018-02-18T18:30:19.591Z,2.10
2018-02-18T18:32:45.988Z,2.00
2018-02-18T18:35:12.401Z,2.10
2018-02-18T18:37:39.493Z,2.00
2018-02-18T18:40:06.082Z,2.00
2018-02-18T18:42:33.120Z,2.00
2018-02-18T18:45:00.168Z,2.00
2018-02-18T18:47:27.254Z,2.00
2018-02-18T18:49:53.572Z,1.90
2018-02-18T18:52:20.870Z,1.90
2018-02-18T18:54:47.169Z,1.90
2018-02-18T18:57:13.769Z,1.90
2018-02-18T18:59:40.816Z,1.70
2018-02-18T19:02:07.832Z,1.40
2018-02-18T19:04:34.152Z,1.40
2018-02-18T19:07:00.517Z,1.40
2018-02-18T19:09:26.925Z,1.30
2018-02-18T19:11:53.170Z,1.40
2018-02-18T19:14:19.469Z,1.20
2018-02-18T19:16:45.728Z,1.10
2018-02-18T19:19:12.084Z,1.00
2018-02-18T19:21:39.363Z,0.80
2018-02-18T19:24:05.704Z,0.80
2018-02-18T19:26:32.000Z,0.70
2018-02-18T19:28:58.506Z,0.70
2018-02-18T19:31:24.856Z,0.70
2018-02-18T19:33:51.905Z,0.70
2018-02-18T19:36:18.965Z,0.80
2018-02-18T19:38:45.264Z,0.80
2018-02-18T19:41:11.673Z,0.60
2018-02-18T19:43:37.956Z,0.70
2018-02-18T19:46:04.340Z,0.80
2018-02-18T19:48:30.665Z,0.80
2018-02-18T19:50:57.092Z,0.80
2018-02-18T19:53:23.452Z,0.90
2018-02-18T19:55:50.040Z,0.90
2018-02-18T19:58:16.340Z,0.90
2018-02-18T20:00:43.460Z,0.90
2018-02-18T20:03:09.801Z,0.90
2018-02-18T20:05:36.863Z,1.00
2018-02-18T20:08:03.327Z,1.10
2018-02-18T20:10:29.610Z,1.10
2018-02-18T20:12:55.986Z,1.10
2018-02-18T20:15:22.292Z,1.10
2018-02-18T20:17:48.911Z,1.10
2018-02-18T20:20:15.412Z,1.00
2018-02-18T20:22:41.772Z,1.00
2018-02-18T20:25:08.101Z,1.00
2018-02-18T20:27:34.476Z,1.00
2018-02-18T20:30:00.789Z,0.90
2018-02-18T20:32:30.948Z,1.00
2018-02-18T20:34:57.251Z,1.00
2018-02-18T20:37:24.643Z,1.10
2018-02-18T20:39:50.896Z,1.10
2018-02-18T20:42:17.200Z,1.10
2018-02-18T20:44:43.581Z,1.10
2018-02-18T20:47:10.612Z,1.10
2018-02-18T20:49:36.893Z,1.10
2018-02-18T20:52:03.228Z,1.20
2018-02-18T20:54:29.587Z,1.20
2018-02-18T20:56:55.926Z,1.20
2018-02-18T20:59:22.264Z,1.20
2018-02-18T21:01:48.591Z,1.20
2018-02-18T21:04:14.967Z,1.10
2018-02-18T21:06:41.377Z,1.20
2018-02-18T21:09:08.608Z,1.20
2018-02-18T21:11:38.410Z,1.10
2018-02-18T21:14:04.721Z,1.20
2018-02-18T21:16:31.084Z,1.30
2018-02-18T21:18:57.424Z,1.40
2018-02-18T21:21:23.773Z,1.40
2018-02-18T21:23:50.136Z,1.50
2018-02-18T21:26:16.525Z,1.50
2018-02-18T21:28:43.650Z,1.40
2018-02-18T21:31:09.967Z,1.40
2018-02-18T21:33:36.288Z,1.40
2018-02-18T21:36:02.941Z,1.40
2018-02-18T21:38:29.279Z,1.50
2018-02-18T21:40:55.550Z,1.50
2018-02-18T21:43:21.904Z,1.50
2018-02-18T21:45:48.948Z,1.50
2018-02-18T21:48:15.316Z,1.50
2018-02-18T21:50:41.588Z,1.40
2018-02-18T21:53:07.884Z,1.40
2018-02-18T21:55:34.237Z,1.50
2018-02-18T21:58:01.276Z,1.50
2018-02-18T22:00:28.333Z,1.50
2018-02-18T22:02:55.412Z,1.40
2018-02-18T22:05:21.660Z,1.40
2018-02-18T22:07:47.967Z,1.20
2018-02-18T22:10:14.267Z,1.20
2018-02-18T22:12:41.332Z,1.20
2018-02-18T22:15:07.580Z,1.20
2018-02-18T22:17:33.900Z,1.30
2018-02-18T22:20:00.205Z,1.30
2018-02-18T22:22:27.189Z,1.30
2018-02-18T22:24:53.555Z,1.30
2018-02-18T22:27:19.852Z,1.30
2018-02-18T22:29:46.140Z,1.30
2018-02-18T22:32:13.176Z,1.30
2018-02-18T22:34:39.560Z,1.30
2018-02-18T22:37:05.808Z,1.30
2018-02-18T22:39:32.857Z,1.30
2018-02-18T22:41:59.185Z,1.30
2018-02-18T22:44:25.691Z,1.30
2018-02-18T22:46:51.964Z,1.30
2018-02-18T22:49:18.351Z,1.40
2018-02-18T22:51:44.693Z,1.40
2018-02-18T22:54:11.016Z,1.40
2018-02-18T22:56:37.373Z,1.30
2018-02-18T22:59:03.717Z,1.30
2018-02-18T23:01:30.076Z,1.40
2018-02-18T23:03:57.107Z,1.40
2018-02-18T23:06:24.202Z,1.40
2018-02-18T23:08:50.464Z,1.40
2018-02-18T23:11:16.787Z,1.40
2018-02-18T23:13:43.808Z,1.30
2018-02-18T23:16:10.184Z,1.30
2018-02-18T23:18:36.501Z,1.40
2018-02-18T23:21:08.797Z,1.30
2018-02-18T23:23:35.844Z,1.30
2018-02-18T23:26:03.017Z,1.30
2018-02-18T23:28:29.424Z,1.30
2018-02-18T23:30:55.705Z,1.30
2018-02-18T23:33:22.088Z,1.30
2018-02-18T23:35:48.400Z,1.40
2018-02-18T23:38:14.766Z,1.40
2018-02-18T23:40:41.797Z,1.40
2018-02-18T23:43:08.168Z,1.40
2018-02-18T23:45:34.476Z,1.40
2018-02-18T23:48:01.558Z,1.40
2018-02-18T23:50:27.967Z,1.30
2018-02-18T23:52:54.948Z,1.30
2018-02-18T23:55:21.325Z,1.30
2018-02-18T23:57:48.363Z,1.30
